createdAt,value
2018-07-03T00:02:13.097Z,100902.26
2018-07-03T00:04:42.831Z,100902.74
2018-07-03T00:07:12.613Z,100899.22
2018-07-03T00:09:43.093Z,100896.05
2018-07-03T00:12:12.875Z,100903.13
2018-07-03T00:14:42.655Z,100903.73
2018-07-03T00:17:17.046Z,100897.73
2018-07-03T00:19:50.559Z,100896.52
2018-07-03T00:22:21.347Z,100899.62
2018-07-03T00:24:51.117Z,100897.48
2018-07-03T00:27:20.825Z,100904.14
2018-07-03T00:29:50.509Z,100909.88
2018-07-03T00:32:20.318Z,100908.16
2018-07-03T00:34:50.112Z,100908.23
2018-07-03T00:37:19.908Z,100905.76
2018-07-03T00:39:49.677Z,100907.56
2018-07-03T00:42:19.536Z,100907.28
2018-07-03T00:44:49.333Z,100897.71
2018-07-03T00:47:19.287Z,100901.27
2018-07-03T00:49:49.113Z,100897.59
2018-07-03T00:52:18.864Z,100894.19
2018-07-03T00:54:48.587Z,100896.02
2018-07-03T00:57:18.428Z,100887.72
2018-07-03T01:00:05.034Z,100892.53
2018-07-03T01:02:34.960Z,100889.07
2018-07-03T01:05:04.683Z,100887.77
2018-07-03T01:07:34.560Z,100886.05
2018-07-03T01:10:04.798Z,100887.95
2018-07-03T01:12:34.542Z,100896.81
2018-07-03T01:15:04.484Z,100895.16
2018-07-03T01:17:34.291Z,100894.28
2018-07-03T01:20:04.344Z,100888.13
2018-07-03T01:22:34.258Z,100890.02
2018-07-03T01:25:04.200Z,100892.31
2018-07-03T01:27:33.968Z,100892.44
2018-07-03T01:30:03.808Z,100893.79
2018-07-03T01:32:33.632Z,100894.75
2018-07-03T01:35:03.416Z,100895.56
2018-07-03T01:37:33.186Z,100896.16
2018-07-03T01:40:02.952Z,100899.36
2018-07-03T01:42:32.837Z,100904.69
2018-07-03T01:45:02.594Z,100897.23
2018-07-03T01:47:32.363Z,100896.41
2018-07-03T01:50:02.151Z,100895.27
2018-07-03T01:52:31.943Z,100893.96
2018-07-03T01:55:01.740Z,100893.64
2018-07-03T01:57:31.590Z,100899.41
2018-07-03T02:00:01.411Z,100896.05
2018-07-03T02:02:36.036Z,100896.27
2018-07-03T02:05:05.935Z,100897.24
2018-07-03T02:07:35.852Z,100891.61
2018-07-03T02:10:05.813Z,100896.92
2018-07-03T02:12:35.643Z,100900.55
2018-07-03T02:15:05.485Z,100897.08
2018-07-03T02:17:35.283Z,100890.91
2018-07-03T02:20:05.152Z,100892.64
2018-07-03T02:22:35.036Z,100900.20
2018-07-03T02:25:05.034Z,100899.24
2018-07-03T02:27:34.811Z,100887.81
2018-07-03T02:30:04.932Z,100895.72
2018-07-03T02:32:34.693Z,100892.61
2018-07-03T02:35:04.709Z,100892.53
2018-07-03T02:37:34.701Z,100889.06
2018-07-03T02:40:04.668Z,100891.30
2018-07-03T02:42:34.598Z,100886.91
2018-07-03T02:45:04.776Z,100896.30
2018-07-03T02:47:34.616Z,100896.77
2018-07-03T02:50:05.060Z,100895.98
2018-07-03T02:52:34.855Z,100892.44
2018-07-03T02:55:04.787Z,100903.06
2018-07-03T02:57:34.616Z,100892.94
2018-07-03T03:00:05.355Z,100896.92
2018-07-03T03:02:35.208Z,100896.88
2018-07-03T03:05:05.167Z,100894.52
2018-07-03T03:07:35.018Z,100896.08
2018-07-03T03:10:05.036Z,100890.76
2018-07-03T03:12:34.847Z,100894.36
2018-07-03T03:15:05.299Z,100897.31
2018-07-03T03:17:35.290Z,100894.16
2018-07-03T03:20:05.271Z,100898.19
2018-07-03T03:22:35.079Z,100901.78
2018-07-03T03:25:04.924Z,100907.52
2018-07-03T03:27:34.727Z,100908.36
2018-07-03T03:30:05.049Z,100906.52
2018-07-03T03:32:34.848Z,100906.48
2018-07-03T03:35:04.352Z,100913.95
2018-07-03T03:37:34.071Z,100909.95
2018-07-03T03:40:03.971Z,100907.67
2018-07-03T03:42:33.781Z,100908.05
2018-07-03T03:45:03.533Z,100907.09
2018-07-03T03:47:33.351Z,100909.22
2018-07-03T03:50:03.373Z,100907.78
2018-07-03T03:52:33.143Z,100909.04
2018-07-03T03:55:02.959Z,100900.52
2018-07-03T03:57:32.734Z,100909.62
2018-07-03T04:00:02.646Z,100913.02
2018-07-03T04:02:32.465Z,100905.31
2018-07-03T04:05:02.255Z,100908.77
2018-07-03T04:07:32.383Z,100910.78
2018-07-03T04:10:03.058Z,100910.09
2018-07-03T04:12:32.799Z,100905.50
2018-07-03T04:15:02.571Z,100903.13
2018-07-03T04:17:32.408Z,100911.42
2018-07-03T04:20:02.143Z,100909.81
2018-07-03T04:22:31.901Z,100912.12
2018-07-03T04:25:01.325Z,100911.91
2018-07-03T04:27:31.159Z,100913.02
2018-07-03T04:30:01.942Z,100913.08
2018-07-03T04:32:32.055Z,100914.31
2018-07-03T04:35:01.943Z,100914.08
2018-07-03T04:37:31.714Z,100914.59
2018-07-03T04:40:01.768Z,100911.91
2018-07-03T04:42:31.770Z,100912.20
2018-07-03T04:45:01.575Z,100911.13
2018-07-03T04:47:32.113Z,100911.80
2018-07-03T04:50:01.842Z,100915.02
2018-07-03T04:52:31.644Z,100914.70
2018-07-03T04:55:02.332Z,100912.31
2018-07-03T04:57:32.080Z,100927.03
2018-07-03T05:00:02.149Z,100917.89
2018-07-03T05:02:32.078Z,100928.72
2018-07-03T05:05:02.108Z,100921.47
2018-07-03T05:07:32.015Z,100928.73
2018-07-03T05:10:01.810Z,100928.05
2018-07-03T05:12:31.532Z,100923.66
2018-07-03T05:15:01.546Z,100928.28
2018-07-03T05:17:31.375Z,100927.30
2018-07-03T05:20:01.207Z,100924.41
2018-07-03T05:22:30.999Z,100923.97
2018-07-03T05:25:00.803Z,100923.45
2018-07-03T05:27:30.547Z,100926.94
2018-07-03T05:30:00.407Z,100925.64
2018-07-03T05:32:30.551Z,100922.19
2018-07-03T05:35:00.374Z,100925.56
2018-07-03T05:37:30.183Z,100929.38
2018-07-03T05:40:00.521Z,100931.39
2018-07-03T05:42:30.351Z,100929.12
2018-07-03T05:45:00.131Z,100931.20
2018-07-03T05:47:29.903Z,100933.88
2018-07-03T05:49:59.730Z,100932.11
2018-07-03T05:52:30.099Z,100929.45
2018-07-03T05:54:59.854Z,100930.20
2018-07-03T05:57:29.577Z,100927.81
2018-07-03T05:59:59.307Z,100923.06
2018-07-03T06:02:29.131Z,100927.20
2018-07-03T06:04:58.954Z,100922.48
2018-07-03T06:07:28.810Z,100921.50
2018-07-03T06:09:59.130Z,100887.36
2018-07-03T06:12:28.932Z,100927.03
2018-07-03T06:14:58.706Z,100927.72
2018-07-03T06:17:28.655Z,100925.16
2018-07-03T06:19:58.077Z,100929.35
2018-07-03T06:22:27.987Z,100930.27
2018-07-03T06:24:57.910Z,100922.16
2018-07-03T06:27:27.710Z,100922.73
2018-07-03T06:29:57.596Z,100926.66
2018-07-03T06:32:27.500Z,100926.13
2018-07-03T06:34:57.430Z,100923.28
2018-07-03T06:37:27.464Z,100918.66
2018-07-03T06:39:57.158Z,100927.67
2018-07-03T06:42:26.986Z,100923.67
2018-07-03T06:44:56.879Z,100928.14
2018-07-03T06:47:26.746Z,100926.23
2018-07-03T06:49:57.525Z,100925.70
2018-07-03T06:52:27.429Z,100926.84
2018-07-03T06:54:57.331Z,100928.01
2018-07-03T06:57:27.511Z,100927.72
2018-07-03T06:59:57.358Z,100926.13
2018-07-03T07:02:27.191Z,100930.62
2018-07-03T07:04:56.994Z,100935.97
2018-07-03T07:07:26.764Z,100934.08
2018-07-03T07:09:57.208Z,100934.08
2018-07-03T07:12:27.078Z,100932.95
2018-07-03T07:14:57.849Z,100932.73
2018-07-03T07:17:27.800Z,100931.38
2018-07-03T07:19:57.709Z,100942.66
2018-07-03T07:22:27.587Z,100936.74
2018-07-03T07:24:57.436Z,100938.93
2018-07-03T07:27:27.215Z,100937.11
2018-07-03T07:29:56.987Z,100935.64
2018-07-03T07:32:26.970Z,100938.78
2018-07-03T07:34:56.758Z,100933.02
2018-07-03T07:37:26.690Z,100940.81
2018-07-03T07:39:56.383Z,100931.70
2018-07-03T07:42:26.234Z,100942.88
2018-07-03T07:44:56.719Z,100935.68
2018-07-03T07:47:26.826Z,100902.17
2018-07-03T07:49:56.590Z,100933.31
2018-07-03T07:52:26.495Z,100936.28
2018-07-03T07:54:56.725Z,100936.36
2018-07-03T07:57:26.483Z,100927.31
2018-07-03T07:59:56.344Z,100937.23
2018-07-03T08:02:26.209Z,100938.26
2018-07-03T08:04:56.570Z,100939.49
2018-07-03T08:07:26.346Z,100936.29
2018-07-03T08:09:57.931Z,100924.25
2018-07-03T08:12:27.879Z,100935.88
2018-07-03T08:14:57.891Z,100932.13
2018-07-03T08:17:29.795Z,100929.34
2018-07-03T08:20:00.716Z,100935.28
2018-07-03T08:22:31.949Z,100932.86
2018-07-03T08:25:01.480Z,100934.96
2018-07-03T08:27:32.366Z,100928.17
2018-07-03T08:30:02.087Z,100931.20
2018-07-03T08:32:33.016Z,100934.70
2018-07-03T08:35:02.845Z,100920.05
2018-07-03T08:37:32.919Z,100918.81
2018-07-03T08:40:03.933Z,100922.77
2018-07-03T08:42:33.857Z,100911.27
2018-07-03T08:45:03.810Z,100918.80
2018-07-03T08:47:33.637Z,100911.70
2018-07-03T08:50:04.085Z,100904.41
2018-07-03T08:52:34.585Z,100910.12
2018-07-03T08:55:05.205Z,100907.23
2018-07-03T08:57:35.767Z,100908.04
2018-07-03T09:00:09.029Z,100914.38
2018-07-03T09:02:39.260Z,100912.34
2018-07-03T09:05:09.819Z,100908.22
2018-07-03T09:07:46.049Z,100914.86
2018-07-03T09:10:16.705Z,100896.17
2018-07-03T09:12:47.302Z,100902.09
2018-07-03T09:15:20.555Z,100903.80
2018-07-03T09:17:51.043Z,100905.05
2018-07-03T09:20:22.682Z,100899.56
2018-07-03T09:22:53.585Z,100892.84
2018-07-03T09:25:24.681Z,100890.93
2018-07-03T09:27:57.221Z,100890.06
2018-07-03T09:30:29.662Z,100892.99
2018-07-03T09:32:59.536Z,100885.39
2018-07-03T09:35:29.484Z,100894.12
2018-07-03T09:37:59.224Z,100887.48
2018-07-03T09:40:29.047Z,100880.91
2018-07-03T09:42:58.884Z,100876.77
2018-07-03T09:45:28.716Z,100880.06
2018-07-03T09:47:58.562Z,100876.57
2018-07-03T09:50:28.716Z,100886.95
2018-07-03T09:52:58.668Z,100881.34
2018-07-03T09:55:29.204Z,100884.73
2018-07-03T09:57:59.196Z,100878.38
2018-07-03T10:00:34.236Z,100880.30
2018-07-03T10:03:04.012Z,100876.57
2018-07-03T10:05:33.841Z,100886.08
2018-07-03T10:08:03.668Z,100864.16
2018-07-03T10:10:33.444Z,100867.30
2018-07-03T10:13:03.364Z,100870.96
2018-07-03T10:15:33.164Z,100866.20
2018-07-03T10:18:02.979Z,100861.88
2018-07-03T10:20:33.125Z,100865.28
2018-07-03T10:23:03.024Z,100869.77
2018-07-03T10:25:32.949Z,100859.50
2018-07-03T10:28:02.707Z,100858.38
2018-07-03T10:30:33.181Z,100860.75
2018-07-03T10:33:03.033Z,100850.30
2018-07-03T10:35:32.916Z,100850.63
2018-07-03T10:38:02.742Z,100844.55
2018-07-03T10:40:32.649Z,100842.58
2018-07-03T10:43:02.608Z,100850.21
2018-07-03T10:45:32.527Z,100852.37
2018-07-03T10:48:02.294Z,100850.38
2018-07-03T10:50:32.060Z,100851.02
2018-07-03T10:53:01.856Z,100843.70
2018-07-03T10:55:31.698Z,100846.46
2018-07-03T10:58:01.655Z,100846.44
2018-07-03T11:00:31.514Z,100848.96
2018-07-03T11:03:01.424Z,100841.56
2018-07-03T11:05:31.220Z,100852.33
2018-07-03T11:08:01.092Z,100833.08
2018-07-03T11:10:30.881Z,100829.28
2018-07-03T11:13:00.744Z,100831.98
2018-07-03T11:15:30.503Z,100829.28
2018-07-03T11:18:00.280Z,100825.05
2018-07-03T11:20:30.009Z,100829.20
2018-07-03T11:22:59.855Z,100807.03
2018-07-03T11:25:29.684Z,100813.68
2018-07-03T11:27:59.480Z,100818.92
2018-07-03T11:30:29.532Z,100815.23
2018-07-03T11:32:59.494Z,100823.91
2018-07-03T11:35:29.906Z,100831.89
2018-07-03T11:37:59.728Z,100824.52
2018-07-03T11:40:29.672Z,100824.31
2018-07-03T11:42:59.642Z,100815.13
2018-07-03T11:45:29.458Z,100830.22
2018-07-03T11:47:59.400Z,100824.38
2018-07-03T11:50:29.216Z,100808.76
2018-07-03T11:52:59.061Z,100810.59
2018-07-03T11:55:28.910Z,100812.36
2018-07-03T11:57:58.943Z,100811.14
2018-07-03T12:00:28.786Z,100820.70
2018-07-03T12:02:58.573Z,100811.77
2018-07-03T12:05:28.373Z,100803.77
2018-07-03T12:07:58.282Z,100798.55
2018-07-03T12:10:28.236Z,100796.35
2018-07-03T12:12:58.131Z,100792.78
2018-07-03T12:15:28.001Z,100794.70
2018-07-03T12:17:57.774Z,100793.73
2018-07-03T12:20:27.657Z,100788.82
2018-07-03T12:22:57.659Z,100800.79
2018-07-03T12:25:27.531Z,100796.88
2018-07-03T12:27:57.379Z,100802.45
2018-07-03T12:30:27.339Z,100797.42
2018-07-03T12:32:57.197Z,100792.49
2018-07-03T12:35:26.966Z,100788.65
2018-07-03T12:37:56.871Z,100792.63
2018-07-03T12:40:26.617Z,100796.34
2018-07-03T12:42:56.527Z,100790.92
2018-07-03T12:45:26.361Z,100794.61
2018-07-03T12:47:56.229Z,100796.41
2018-07-03T12:50:26.139Z,100791.85
2018-07-03T12:52:56.063Z,100792.20
2018-07-03T12:55:25.602Z,100790.73
2018-07-03T12:57:55.607Z,100792.48
2018-07-03T13:00:25.538Z,100784.67
2018-07-03T13:02:55.491Z,100775.91
2018-07-03T13:05:25.853Z,100782.30
2018-07-03T13:07:55.701Z,100776.92
2018-07-03T13:10:25.579Z,100773.39
2018-07-03T13:12:55.479Z,100768.23
2018-07-03T13:15:25.485Z,100779.95
2018-07-03T13:17:55.341Z,100778.23
2018-07-03T13:20:25.233Z,100768.63
2018-07-03T13:22:55.798Z,100768.63
2018-07-03T13:25:25.659Z,100761.41
2018-07-03T13:27:55.553Z,100766.71
2018-07-03T13:30:25.415Z,100757.64
2018-07-03T13:32:55.266Z,100757.86
2018-07-03T13:35:25.079Z,100769.86
2018-07-03T13:37:57.941Z,100765.05
2018-07-03T13:40:27.817Z,100768.46
2018-07-03T13:42:57.730Z,100772.31
2018-07-03T13:45:27.650Z,100766.14
2018-07-03T13:47:57.689Z,100763.17
2018-07-03T13:50:27.668Z,100763.69
2018-07-03T13:52:59.466Z,100764.89
2018-07-03T13:55:29.441Z,100756.30
2018-07-03T13:57:59.249Z,100753.69
2018-07-03T14:00:29.241Z,100759.84
2018-07-03T14:02:59.211Z,100762.57
2018-07-03T14:05:29.082Z,100756.78
2018-07-03T14:07:58.958Z,100752.47
2018-07-03T14:10:29.605Z,100756.53
2018-07-03T14:12:59.425Z,100757.88
2018-07-03T14:15:29.437Z,100757.12
2018-07-03T14:18:00.420Z,100758.48
2018-07-03T14:20:30.789Z,100748.76
2018-07-03T14:23:00.722Z,100744.67
2018-07-03T14:25:30.654Z,100747.09
2018-07-03T14:28:00.570Z,100747.83
2018-07-03T14:30:30.519Z,100736.64
2018-07-03T14:33:00.344Z,100747.22
2018-07-03T14:35:30.296Z,100747.26
2018-07-03T14:38:00.353Z,100748.25
2018-07-03T14:40:31.329Z,100735.04
2018-07-03T14:43:01.699Z,100739.96
2018-07-03T14:45:31.726Z,100734.91
2018-07-03T14:48:01.600Z,100730.14
2018-07-03T14:50:31.517Z,100734.79
2018-07-03T14:53:01.346Z,100737.26
2018-07-03T14:55:31.194Z,100730.57
2018-07-03T14:58:01.242Z,100739.46
2018-07-03T15:00:31.122Z,100728.33
2018-07-03T15:03:01.250Z,100735.27
2018-07-03T15:05:31.101Z,100736.99
2018-07-03T15:08:00.930Z,100735.86
2018-07-03T15:10:30.828Z,100731.59
2018-07-03T15:13:00.766Z,100739.33
2018-07-03T15:15:30.646Z,100742.09
2018-07-03T15:18:00.564Z,100737.31
2018-07-03T15:20:30.636Z,100728.17
2018-07-03T15:23:00.400Z,100728.08
2018-07-03T15:25:30.436Z,100727.52
2018-07-03T15:28:00.458Z,100739.98
2018-07-03T15:30:30.703Z,100731.38
2018-07-03T15:33:00.612Z,100730.55
2018-07-03T15:35:30.570Z,100731.02
2018-07-03T15:38:00.424Z,100733.08
2018-07-03T15:40:30.749Z,100732.48
2018-07-03T15:43:01.707Z,100719.95
2018-07-03T15:45:31.623Z,100720.56
2018-07-03T15:48:05.716Z,100718.89
2018-07-03T15:50:35.827Z,100714.27
2018-07-03T15:53:06.373Z,100716.30
2018-07-03T15:55:36.787Z,100719.41
2018-07-03T15:58:07.102Z,100714.84
2018-07-03T16:00:37.991Z,100705.78
2018-07-03T16:03:24.821Z,100711.60
2018-07-03T16:07:12.457Z,100711.03
2018-07-03T16:09:42.609Z,100709.73
2018-07-03T16:12:14.485Z,100705.05
2018-07-03T16:14:45.854Z,100704.19
2018-07-03T16:17:16.869Z,100691.29
2018-07-03T16:19:52.063Z,100697.06
2018-07-03T16:22:21.985Z,100694.55
2018-07-03T16:24:52.122Z,100696.09
2018-07-03T16:27:22.334Z,100689.87
2018-07-03T16:29:52.145Z,100698.25
2018-07-03T16:32:22.029Z,100689.15
2018-07-03T16:34:52.065Z,100692.64
2018-07-03T16:37:22.478Z,100691.52
2018-07-03T16:39:52.679Z,100683.26
2018-07-03T16:42:22.711Z,100682.97
2018-07-03T16:44:52.981Z,100683.76
2018-07-03T16:47:23.259Z,100685.58
2018-07-03T16:49:53.462Z,100680.70
2018-07-03T16:52:23.977Z,100681.69
2018-07-03T16:54:54.942Z,100680.09
2018-07-03T16:57:24.817Z,100685.70
2018-07-03T16:59:54.640Z,100684.39
2018-07-03T17:02:24.581Z,100681.70
2018-07-03T17:04:54.431Z,100685.60
2018-07-03T17:07:24.372Z,100680.86
2018-07-03T17:09:55.091Z,100682.19
2018-07-03T17:12:25.019Z,100682.40
2018-07-03T17:14:54.692Z,100683.39
2018-07-03T17:17:25.027Z,100682.71
2018-07-03T17:19:54.847Z,100680.11
2018-07-03T17:22:25.205Z,100684.52
2018-07-03T17:24:55.009Z,100692.91
2018-07-03T17:27:25.330Z,100688.66
2018-07-03T17:29:55.443Z,100681.64
2018-07-03T17:32:25.724Z,100680.19
2018-07-03T17:34:55.690Z,100674.97
2018-07-03T17:37:25.926Z,100674.59
2018-07-03T17:40:12.632Z,100679.27
2018-07-03T17:42:59.938Z,100679.22
2018-07-03T17:45:47.409Z,100677.63
2018-07-03T17:48:17.449Z,100676.86
2018-07-03T17:50:47.246Z,100673.52
2018-07-03T17:53:17.080Z,100677.13
2018-07-03T17:55:47.301Z,100672.74
2018-07-03T17:58:17.256Z,100673.42
2018-07-03T18:00:47.133Z,100675.04
2018-07-03T18:03:16.973Z,100667.96
2018-07-03T18:05:46.889Z,100673.61
2018-07-03T18:08:16.684Z,100669.33
2018-07-03T18:10:46.666Z,100669.16
2018-07-03T18:13:16.821Z,100667.92
2018-07-03T18:15:46.669Z,100672.73
2018-07-03T18:18:16.469Z,100667.92
2018-07-03T18:20:48.236Z,100675.41
2018-07-03T18:23:21.502Z,100673.85
2018-07-03T18:25:51.448Z,100674.26
2018-07-03T18:28:21.328Z,100677.35
2018-07-03T18:30:51.164Z,100675.84
2018-07-03T18:33:20.979Z,100675.62
2018-07-03T18:35:51.798Z,100686.04
2018-07-03T18:38:21.668Z,100681.52
2018-07-03T18:40:52.139Z,100675.34
2018-07-03T18:43:22.081Z,100683.78
2018-07-03T18:45:52.538Z,100681.08
2018-07-03T18:48:22.639Z,100679.75
2018-07-03T18:50:52.516Z,100677.62
2018-07-03T18:53:23.399Z,100681.20
2018-07-03T18:55:53.800Z,100681.27
2018-07-03T18:58:24.357Z,100679.83
2018-07-03T19:00:54.620Z,100684.00
2018-07-03T19:03:24.998Z,100680.14
2018-07-03T19:05:54.885Z,100685.14
2018-07-03T19:08:41.180Z,100685.17
2018-07-03T19:11:14.656Z,100687.50
2018-07-03T19:13:46.338Z,100673.61
2018-07-03T19:16:17.345Z,100693.61
2018-07-03T19:18:47.850Z,100690.09
2018-07-03T19:21:22.028Z,100695.00
2018-07-03T19:23:54.797Z,100695.80
2018-07-03T19:26:27.634Z,100704.76
2018-07-03T19:28:57.672Z,100700.15
2018-07-03T19:31:29.461Z,100708.17
2018-07-03T19:33:59.426Z,100707.19
2018-07-03T19:36:30.257Z,100709.54
2018-07-03T19:39:00.337Z,100711.03
2018-07-03T19:41:35.697Z,100705.10
2018-07-03T19:44:09.524Z,100712.82
2018-07-03T19:46:44.230Z,100708.06
2018-07-03T19:54:33.333Z,100711.19
2018-07-03T19:57:03.594Z,100718.77
2018-07-03T19:59:34.249Z,100719.20
2018-07-03T20:02:05.076Z,100724.63
2018-07-03T20:07:43.991Z,100722.39
2018-07-03T20:10:23.653Z,100723.77
2018-07-03T20:12:53.859Z,100725.77
2018-07-03T20:15:24.118Z,100728.37
2018-07-03T20:17:55.525Z,100732.55
2018-07-03T20:21:02.091Z,100733.81
2018-07-03T20:23:32.310Z,100732.77
2018-07-03T20:26:03.785Z,100738.31
2018-07-03T20:28:34.636Z,100730.81
2018-07-03T20:31:04.694Z,100741.49
2018-07-03T20:33:34.950Z,100741.34
2018-07-03T20:36:04.929Z,100735.05
2018-07-03T20:38:35.411Z,100737.86
2018-07-03T20:41:08.227Z,100737.12
2018-07-03T20:43:39.572Z,100732.20
2018-07-03T20:46:11.366Z,100733.78
2018-07-03T20:48:42.564Z,100741.55
2018-07-03T20:51:12.628Z,100732.26
2018-07-03T20:53:42.224Z,100730.48
2018-07-03T20:56:12.531Z,100731.97
2018-07-03T20:58:42.469Z,100734.08
2018-07-03T21:01:12.413Z,100735.81
2018-07-03T21:03:42.257Z,100733.54
2018-07-03T21:06:12.396Z,100741.77
2018-07-03T21:08:42.305Z,100736.82
2018-07-03T21:11:12.282Z,100746.89
2018-07-03T21:13:42.163Z,100735.37
2018-07-03T21:16:12.163Z,100735.86
2018-07-03T21:18:42.053Z,100735.93
2018-07-03T21:21:11.977Z,100733.72
2018-07-03T21:23:42.012Z,100739.36
2018-07-03T21:26:11.856Z,100735.11
2018-07-03T21:28:41.279Z,100738.37
2018-07-03T21:31:11.223Z,100731.82
2018-07-03T21:33:43.131Z,100740.72
2018-07-03T21:36:13.909Z,100736.30
2018-07-03T21:38:44.013Z,100734.97
2018-07-03T21:41:14.596Z,100734.59
2018-07-03T21:43:45.038Z,100736.99
2018-07-03T21:46:16.129Z,100738.92
2018-07-03T21:48:49.006Z,100742.69
2018-07-03T21:51:20.196Z,100742.01
2018-07-03T21:53:52.154Z,100733.93
2018-07-03T21:56:22.445Z,100577.72
2018-07-03T21:58:53.816Z,100749.72
2018-07-03T22:01:27.073Z,100743.72
2018-07-03T22:03:58.621Z,100749.19
2018-07-03T22:06:30.205Z,100744.24
2018-07-03T22:09:03.274Z,100749.92
2018-07-03T22:11:35.008Z,100755.33
2018-07-03T22:14:05.701Z,100747.38
2018-07-03T22:16:36.407Z,100748.11
2018-07-03T22:19:07.838Z,100745.15
2018-07-03T22:21:40.761Z,100747.30
2018-07-03T22:24:16.480Z,100747.62
2018-07-03T22:26:46.792Z,100743.69
2018-07-03T22:29:18.458Z,100745.08
2018-07-03T22:31:49.896Z,100742.41
2018-07-03T22:34:20.821Z,100738.86
2018-07-03T22:36:50.733Z,100743.34
2018-07-03T22:39:24.309Z,100739.80
2018-07-03T22:41:55.905Z,100738.52
2018-07-03T22:44:28.180Z,100739.19
2018-07-03T22:46:59.929Z,100738.89
2018-07-03T22:49:33.210Z,100737.35
2018-07-03T22:52:05.929Z,100737.47
2018-07-03T22:54:35.836Z,100733.61
2018-07-03T22:57:07.304Z,100734.53
2018-07-03T22:59:37.160Z,100732.03
2018-07-03T23:02:07.885Z,100730.95
2018-07-03T23:04:38.488Z,100726.66
2018-07-03T23:07:08.440Z,100724.23
2018-07-03T23:09:37.943Z,100725.11
2018-07-03T23:12:13.100Z,100727.26
2018-07-03T23:14:44.552Z,100731.31
2018-07-03T23:17:16.018Z,100728.30
2018-07-03T23:19:47.180Z,100731.87
2018-07-03T23:22:17.847Z,100729.88
2018-07-03T23:24:49.655Z,100726.13
2018-07-03T23:27:19.592Z,100724.33
2018-07-03T23:29:49.455Z,100724.84
2018-07-03T23:32:19.488Z,100721.39
2018-07-03T23:34:52.133Z,100722.38
2018-07-03T23:37:22.174Z,100723.31
2018-07-03T23:39:52.173Z,100722.50
2018-07-03T23:42:22.336Z,100720.89
2018-07-03T23:44:52.899Z,100726.74
2018-07-03T23:47:39.659Z,100732.43
2018-07-03T23:50:26.319Z,100724.02
2018-07-03T23:53:13.049Z,100727.15
2018-07-03T23:55:59.578Z,100728.07
2018-07-03T23:58:48.727Z,100733.05
